createdAt,value
2022-10-11T00:02:59.754Z,98553.27
2022-10-11T00:06:03.785Z,98556.20
2022-10-11T00:09:07.745Z,98554.93
2022-10-11T00:12:10.832Z,98557.06
2022-10-11T00:15:16.875Z,98558.48
2022-10-11T00:18:19.947Z,98558.48
2022-10-11T00:21:23.127Z,98555.56
2022-10-11T00:24:26.085Z,98557.38
2022-10-11T00:27:28.935Z,98553.82
2022-10-11T00:30:32.431Z,98556.66
2022-10-11T00:33:35.734Z,98556.98
2022-10-11T00:36:38.875Z,98560.38
2022-10-11T00:39:41.683Z,98563.29
2022-10-11T00:42:44.791Z,98560.06
2022-10-11T00:45:56.457Z,98563.22
2022-10-11T00:49:13.632Z,98559.73
2022-10-11T00:52:42.084Z,98561.95
2022-10-11T00:55:54.224Z,98565.09
2022-10-11T00:59:00.012Z,98560.29
2022-10-11T01:02:04.879Z,98560.52
2022-10-11T01:05:28.648Z,98559.02
2022-10-11T01:08:32.724Z,98560.05
2022-10-11T01:11:37.745Z,98560.45
2022-10-11T01:15:01.880Z,98560.21
2022-10-11T01:18:22.183Z,98560.61
2022-10-11T01:21:47.008Z,98561.30
2022-10-11T01:25:00.629Z,98559.42
2022-10-11T01:28:24.964Z,98562.41
2022-10-11T01:31:38.693Z,98561.63
2022-10-11T01:35:01.762Z,98561.71
2022-10-11T01:38:10.270Z,98560.13
2022-10-11T01:41:24.058Z,98565.02
2022-10-11T01:44:27.866Z,98566.43
2022-10-11T01:47:31.024Z,98566.75
2022-10-11T01:50:56.956Z,98566.12
2022-10-11T01:54:05.882Z,98565.89
2022-10-11T01:57:33.748Z,98562.02
2022-10-11T02:01:04.198Z,98563.21
2022-10-11T02:04:24.996Z,98566.20
2022-10-11T02:07:41.039Z,98568.96
2022-10-11T02:11:04.090Z,98569.27
2022-10-11T02:14:11.628Z,98567.70
2022-10-11T02:17:19.384Z,98567.23
2022-10-11T02:20:26.251Z,98563.60
2022-10-11T02:23:44.007Z,98560.77
2022-10-11T02:26:54.659Z,98560.84
2022-10-11T02:30:00.848Z,98562.66
2022-10-11T02:33:08.417Z,98560.47
2022-10-11T02:36:17.371Z,98564.80
2022-10-11T02:39:34.455Z,98565.34
2022-10-11T02:42:44.705Z,98563.61
2022-10-11T02:45:55.900Z,98565.58
2022-10-11T02:49:00.699Z,98566.12
2022-10-11T02:52:05.289Z,98574.00
2022-10-11T02:55:08.704Z,98576.05
2022-10-11T02:58:11.495Z,98581.89
2022-10-11T03:01:14.880Z,98585.44
2022-10-11T03:04:17.716Z,98583.16
2022-10-11T03:07:20.493Z,98581.35
2022-10-11T03:10:23.325Z,98595.29
2022-10-11T03:13:26.184Z,98596.95
2022-10-11T03:16:29.064Z,98599.55
2022-10-11T03:19:32.837Z,98603.95
2022-10-11T03:22:35.680Z,98605.37
2022-10-11T03:25:38.785Z,98603.17
2022-10-11T03:28:41.707Z,98603.80
2022-10-11T03:31:44.581Z,98609.25
2022-10-11T03:34:47.416Z,98616.16
2022-10-11T03:37:51.492Z,98621.60
2022-10-11T03:40:54.827Z,98618.92
2022-10-11T03:43:57.611Z,98618.54
2022-10-11T03:47:00.374Z,98625.63
2022-10-11T03:50:07.578Z,98624.21
2022-10-11T03:53:10.483Z,98626.66
2022-10-11T03:56:13.579Z,98621.94
2022-10-11T03:59:16.942Z,98623.42
2022-10-11T04:02:20.081Z,98624.77
2022-10-11T04:05:23.023Z,98623.56
2022-10-11T04:08:26.241Z,98620.48
2022-10-11T04:11:29.056Z,98623.96
2022-10-11T04:14:31.911Z,98623.02
2022-10-11T04:17:34.821Z,98619.57
2022-10-11T04:20:37.797Z,98623.75
2022-10-11T04:23:40.595Z,98620.36
2022-10-11T04:26:43.341Z,98621.15
2022-10-11T04:29:46.122Z,98629.27
2022-10-11T04:32:49.029Z,98635.04
2022-10-11T04:35:56.213Z,98637.77
2022-10-11T04:38:59.113Z,98642.27
2022-10-11T04:42:01.904Z,98647.31
2022-10-11T04:45:05.682Z,98648.81
2022-10-11T04:48:08.743Z,98651.80
2022-10-11T04:51:11.575Z,98656.45
2022-10-11T04:54:14.628Z,98656.70
2022-10-11T04:57:17.411Z,98658.81
2022-10-11T05:00:20.319Z,98663.08
2022-10-11T05:03:23.988Z,98661.11
2022-10-11T05:06:26.856Z,98671.27
2022-10-11T05:09:29.742Z,98675.60
2022-10-11T05:12:32.579Z,98678.67
2022-10-11T05:15:35.405Z,98681.74
2022-10-11T05:18:39.240Z,98686.94
2022-10-11T05:21:42.117Z,98691.13
2022-10-11T05:24:45.005Z,98696.55
2022-10-11T05:27:48.017Z,98696.46
2022-10-11T05:30:50.854Z,98697.65
2022-10-11T05:33:53.722Z,98706.85
2022-10-11T05:36:57.216Z,98710.48
2022-10-11T05:40:00.071Z,98718.34
2022-10-11T05:43:02.908Z,98716.00
2022-10-11T05:46:06.202Z,98712.45
2022-10-11T05:49:09.644Z,98719.14
2022-10-11T05:52:13.685Z,98725.60
2022-10-11T05:55:16.549Z,98729.46
2022-10-11T05:58:19.455Z,98733.08
2022-10-11T06:01:25.082Z,98735.05
2022-10-11T06:04:28.172Z,98740.09
2022-10-11T06:07:31.094Z,98743.10
2022-10-11T06:10:34.920Z,98747.34
2022-10-11T06:13:37.761Z,98750.10
2022-10-11T06:16:40.736Z,98746.58
2022-10-11T06:19:46.370Z,98748.77
2022-10-11T06:22:49.263Z,98752.73
2022-10-11T06:26:05.961Z,98762.34
2022-10-11T06:29:09.902Z,98766.83
2022-10-11T06:32:13.430Z,98770.38
2022-10-11T06:35:16.358Z,98780.14
2022-10-11T06:38:19.250Z,98794.27
2022-10-11T06:41:27.464Z,98799.17
2022-10-11T06:44:30.338Z,98801.45
2022-10-11T06:47:33.261Z,98803.04
2022-10-11T06:50:58.643Z,98809.18
2022-10-11T06:54:01.949Z,98818.17
2022-10-11T06:57:04.883Z,98818.34
2022-10-11T07:00:12.514Z,98819.20
2022-10-11T07:03:15.645Z,98824.17
2022-10-11T07:06:24.549Z,98819.83
2022-10-11T07:09:27.371Z,98824.64
2022-10-11T07:12:30.162Z,98822.19
2022-10-11T07:15:38.151Z,98823.14
2022-10-11T07:18:41.001Z,98832.42
2022-10-11T07:21:43.831Z,98838.34
2022-10-11T07:24:49.100Z,98840.08
2022-10-11T07:27:51.897Z,98848.20
2022-10-11T07:30:54.791Z,98853.31
2022-10-11T07:33:57.689Z,98854.35
2022-10-11T07:37:00.527Z,98855.13
2022-10-11T07:40:03.901Z,98861.75
2022-10-11T07:43:06.726Z,98868.62
2022-10-11T07:46:11.303Z,98874.92
2022-10-11T07:49:14.206Z,98875.80
2022-10-11T07:52:17.093Z,98883.37
2022-10-11T07:55:20.291Z,98887.48
2022-10-11T07:58:23.082Z,98889.45
2022-10-11T08:01:27.559Z,98894.98
2022-10-11T08:04:30.435Z,98902.17
2022-10-11T08:07:33.369Z,98905.39
2022-10-11T08:10:54.207Z,98908.38
2022-10-11T08:13:58.229Z,98910.82
2022-10-11T08:17:02.444Z,98912.95
2022-10-11T08:20:05.680Z,98917.68
2022-10-11T08:23:09.627Z,98922.88
2022-10-11T08:26:12.554Z,98919.71
2022-10-11T08:29:15.408Z,98923.58
2022-10-11T08:32:18.272Z,98924.91
2022-10-11T08:35:21.992Z,98931.20
2022-10-11T08:38:25.386Z,98924.52
2022-10-11T08:41:42.330Z,98929.16
2022-10-11T08:45:16.185Z,98932.25
2022-10-11T08:48:30.101Z,98933.11
2022-10-11T08:52:00.150Z,98935.80
2022-10-11T08:55:34.829Z,98939.75
2022-10-11T08:58:44.531Z,98939.81
2022-10-11T09:01:54.501Z,98944.79
2022-10-11T09:04:57.499Z,98945.42
2022-10-11T09:08:09.043Z,98946.92
2022-10-11T09:11:35.761Z,98954.56
2022-10-11T09:15:16.675Z,98953.31
2022-10-11T09:18:44.933Z,98955.05
2022-10-11T09:22:17.067Z,98952.36
2022-10-11T09:25:29.827Z,98957.33
2022-10-11T09:28:41.889Z,98958.60
2022-10-11T09:31:49.167Z,98960.41
2022-10-11T09:35:11.225Z,98961.20
2022-10-11T09:38:29.599Z,98959.63
2022-10-11T09:41:39.569Z,98962.00
2022-10-11T09:44:48.263Z,98960.59
2022-10-11T09:47:53.676Z,98955.63
2022-10-11T09:51:05.263Z,98955.55
2022-10-11T09:54:10.521Z,98956.50
2022-10-11T09:57:35.947Z,98959.89
2022-10-11T10:00:38.927Z,98965.75
2022-10-11T10:03:44.098Z,98967.80
2022-10-11T10:06:46.968Z,98972.30
2022-10-11T10:09:50.591Z,98973.72
2022-10-11T10:12:56.231Z,98974.67
2022-10-11T10:15:59.530Z,98971.74
2022-10-11T10:19:06.489Z,98974.67
2022-10-11T10:22:22.818Z,98974.27
2022-10-11T10:25:35.952Z,98978.37
2022-10-11T10:29:03.851Z,98978.84
2022-10-11T10:32:20.921Z,98985.95
2022-10-11T10:35:31.571Z,98986.73
2022-10-11T10:38:40.446Z,98987.13
2022-10-11T10:41:43.304Z,98988.80
2022-10-11T10:44:53.100Z,98988.55
2022-10-11T10:48:26.004Z,98987.29
2022-10-11T10:51:31.999Z,98987.98
2022-10-11T10:54:49.229Z,98987.91
2022-10-11T10:58:19.983Z,98984.45
2022-10-11T11:01:26.608Z,98984.84
2022-10-11T11:04:35.074Z,98981.11
2022-10-11T11:07:50.179Z,98985.23
2022-10-11T11:11:01.034Z,98985.71
2022-10-11T11:14:21.669Z,98987.05
2022-10-11T11:17:52.158Z,98989.09
2022-10-11T11:21:21.052Z,98987.75
2022-10-11T11:25:01.558Z,98988.15
2022-10-11T11:28:29.603Z,98988.78
2022-10-11T11:31:51.423Z,98986.66
2022-10-11T11:35:02.219Z,98986.88
2022-10-11T11:38:27.137Z,98986.80
2022-10-11T11:41:40.758Z,98985.14
2022-10-11T11:44:46.883Z,98982.77
2022-10-11T11:47:56.171Z,98977.23
2022-10-11T11:51:08.916Z,98980.45
2022-10-11T11:54:32.393Z,98978.85
2022-10-11T11:58:07.575Z,98977.65
2022-10-11T12:01:17.903Z,98981.52
2022-10-11T12:04:28.583Z,98980.94
2022-10-11T12:07:31.539Z,98975.72
2022-10-11T12:10:49.569Z,98972.39
2022-10-11T12:13:54.019Z,98975.14
2022-10-11T12:17:20.166Z,98978.80
2022-10-11T12:20:24.947Z,98977.44
2022-10-11T12:23:30.808Z,98981.63
2022-10-11T12:26:41.564Z,98985.19
2022-10-11T12:29:48.412Z,98988.12
2022-10-11T12:33:02.827Z,98984.51
2022-10-11T12:36:20.653Z,98985.21
2022-10-11T12:39:23.985Z,98987.98
2022-10-11T12:42:37.009Z,98984.13
2022-10-11T12:45:41.735Z,98989.12
2022-10-11T12:49:14.186Z,98990.46
2022-10-11T12:52:33.720Z,98984.63
2022-10-11T12:56:00.835Z,98983.77
2022-10-11T12:59:06.973Z,98988.20
2022-10-11T13:02:38.832Z,98987.50
2022-10-11T13:05:45.223Z,98985.59
2022-10-11T13:08:54.835Z,98985.59
2022-10-11T13:12:18.614Z,98988.36
2022-10-11T13:15:23.678Z,98991.05
2022-10-11T13:18:27.125Z,98991.08
2022-10-11T13:21:39.553Z,98989.73
2022-10-11T13:24:42.837Z,98996.68
2022-10-11T13:27:47.758Z,98993.91
2022-10-11T13:30:56.325Z,98995.97
2022-10-11T13:33:59.988Z,98992.35
2022-10-11T13:37:03.101Z,98987.37
2022-10-11T13:40:06.778Z,98987.45
2022-10-11T13:43:09.899Z,98990.92
2022-10-11T13:46:23.033Z,98991.31
2022-10-11T13:49:37.308Z,98994.88
2022-10-11T13:52:58.019Z,98993.54
2022-10-11T13:56:05.033Z,98995.83
2022-10-11T13:59:21.011Z,98999.05
2022-10-11T14:02:25.944Z,98995.25
2022-10-11T14:05:36.711Z,98998.48
2022-10-11T14:08:46.747Z,99001.72
2022-10-11T14:11:50.234Z,99003.54
2022-10-11T14:14:53.138Z,99004.10
2022-10-11T14:17:56.257Z,99004.32
2022-10-11T14:21:23.582Z,99003.86
2022-10-11T14:24:27.383Z,99004.02
2022-10-11T14:27:30.664Z,99006.30
2022-10-11T14:30:33.546Z,99008.20
2022-10-11T14:33:37.359Z,99007.17
2022-10-11T14:36:40.521Z,99009.95
2022-10-11T14:39:43.582Z,99012.31
2022-10-11T14:42:46.784Z,99012.71
2022-10-11T14:45:49.880Z,99012.08
2022-10-11T14:48:55.854Z,99015.08
2022-10-11T14:51:59.474Z,99014.60
2022-10-11T14:55:02.336Z,99016.34
2022-10-11T14:58:06.330Z,99016.02
2022-10-11T15:01:16.329Z,99019.96
2022-10-11T15:04:21.239Z,99024.77
2022-10-11T15:07:24.061Z,99025.41
2022-10-11T15:10:31.463Z,99028.66
2022-10-11T15:13:34.355Z,99027.96
2022-10-11T15:16:37.330Z,99030.33
2022-10-11T15:19:40.088Z,99028.42
2022-10-11T15:22:42.886Z,99033.16
2022-10-11T15:25:46.289Z,99034.18
2022-10-11T15:28:50.859Z,99035.59
2022-10-11T15:31:53.736Z,99031.56
2022-10-11T15:34:56.572Z,99034.48
2022-10-11T15:38:00.301Z,99041.10
2022-10-11T15:41:04.432Z,99047.55
2022-10-11T15:44:07.229Z,99051.00
2022-10-11T15:47:10.956Z,99053.73
2022-10-11T15:50:19.031Z,99058.85
2022-10-11T15:53:26.501Z,99057.79
2022-10-11T15:56:33.668Z,99060.05
2022-10-11T15:59:37.354Z,99063.98
2022-10-11T16:02:40.775Z,99071.20
2022-10-11T16:05:44.594Z,99073.11
2022-10-11T16:08:48.090Z,99076.45
2022-10-11T16:11:51.000Z,99076.89
2022-10-11T16:14:54.646Z,99078.91
2022-10-11T16:17:58.226Z,99079.73
2022-10-11T16:21:01.205Z,99085.05
2022-10-11T16:24:04.854Z,99091.77
2022-10-11T16:27:07.721Z,99092.29
2022-10-11T16:30:16.899Z,99095.79
2022-10-11T16:33:19.917Z,99101.67
2022-10-11T16:36:32.590Z,99103.75
2022-10-11T16:39:36.268Z,99106.86
2022-10-11T16:42:39.471Z,99105.48
2022-10-11T16:45:42.393Z,99102.45
2022-10-11T16:48:45.347Z,99104.85
2022-10-11T16:51:48.860Z,99111.11
2022-10-11T16:54:51.876Z,99109.89
2022-10-11T16:57:54.801Z,99110.80
2022-10-11T17:00:57.801Z,99114.98
2022-10-11T17:04:01.157Z,99116.67
2022-10-11T17:07:05.866Z,99121.73
2022-10-11T17:10:08.895Z,99124.52
2022-10-11T17:13:12.214Z,99122.88
2022-10-11T17:16:16.509Z,99121.81
2022-10-11T17:19:19.333Z,99123.08
2022-10-11T17:22:22.227Z,99120.33
2022-10-11T17:25:25.300Z,99125.20
2022-10-11T17:28:28.240Z,99127.98
2022-10-11T17:31:31.561Z,99132.34
2022-10-11T17:34:34.731Z,99133.09
2022-10-11T17:37:37.595Z,99134.10
2022-10-11T17:40:40.360Z,99133.83
2022-10-11T17:43:43.484Z,99131.35
2022-10-11T17:46:46.974Z,99133.21
2022-10-11T17:49:49.962Z,99130.02
2022-10-11T17:52:53.877Z,99129.91
2022-10-11T17:55:59.812Z,99136.09
2022-10-11T17:59:02.782Z,99138.40
2022-10-11T18:02:06.343Z,99142.91
2022-10-11T18:05:09.318Z,99143.67
2022-10-11T18:08:12.720Z,99142.98
2022-10-11T18:11:19.047Z,99145.77
2022-10-11T18:14:22.045Z,99144.17
2022-10-11T18:17:24.894Z,99137.30
2022-10-11T18:20:28.451Z,99137.29
2022-10-11T18:23:32.550Z,99138.81
2022-10-11T18:26:35.427Z,99142.31
2022-10-11T18:29:38.460Z,99140.62
2022-10-11T18:32:41.462Z,99141.20
2022-10-11T18:35:47.198Z,99138.73
2022-10-11T18:38:54.505Z,99139.01
2022-10-11T18:41:57.307Z,99142.88
2022-10-11T18:45:00.097Z,99142.68
2022-10-11T18:48:03.103Z,99142.79
2022-10-11T18:51:08.953Z,99141.72
2022-10-11T18:54:15.455Z,99144.35
2022-10-11T18:57:21.458Z,99141.07
2022-10-11T19:00:40.027Z,99144.85
2022-10-11T19:03:45.847Z,99139.00
2022-10-11T19:06:49.754Z,99137.39
2022-10-11T19:09:53.232Z,99137.83
2022-10-11T19:12:56.230Z,99138.51
2022-10-11T19:16:11.128Z,99138.77
2022-10-11T19:19:13.959Z,99141.21
2022-10-11T19:22:16.988Z,99141.98
2022-10-11T19:25:19.920Z,99144.19
2022-10-11T19:28:22.753Z,99148.92
2022-10-11T19:31:25.748Z,99149.65
2022-10-11T19:34:30.033Z,99147.52
2022-10-11T19:37:33.086Z,99149.58
2022-10-11T19:40:39.478Z,99153.48
2022-10-11T19:43:43.256Z,99153.89
2022-10-11T19:46:53.483Z,99156.81
2022-10-11T19:49:56.361Z,99162.38
2022-10-11T19:52:59.179Z,99160.44
2022-10-11T19:56:07.969Z,99157.02
2022-10-11T19:59:12.071Z,99162.02
2022-10-11T20:02:15.220Z,99161.27
2022-10-11T20:05:18.113Z,99158.25
2022-10-11T20:08:21.113Z,99161.92
2022-10-11T20:11:24.887Z,99164.39
2022-10-11T20:14:27.754Z,99165.04
2022-10-11T20:17:56.791Z,99166.46
2022-10-11T20:21:03.401Z,99169.77
2022-10-11T20:24:08.509Z,99168.14
2022-10-11T20:27:11.309Z,99164.04
2022-10-11T20:30:14.791Z,99163.79
2022-10-11T20:33:17.590Z,99164.00
2022-10-11T20:36:22.020Z,99169.93
2022-10-11T20:39:25.335Z,99165.73
2022-10-11T20:42:29.965Z,99167.02
2022-10-11T20:45:32.907Z,99173.39
2022-10-11T20:48:37.072Z,99171.27
2022-10-11T20:51:41.889Z,99172.64
2022-10-11T20:54:44.756Z,99172.76
2022-10-11T20:57:47.665Z,99175.79
2022-10-11T21:00:50.590Z,99177.17
2022-10-11T21:03:54.199Z,99174.26
2022-10-11T21:06:57.072Z,99179.48
2022-10-11T21:10:00.042Z,99176.00
2022-10-11T21:13:03.280Z,99172.68
2022-10-11T21:16:13.523Z,99172.56
2022-10-11T21:19:16.403Z,99178.50
2022-10-11T21:22:19.547Z,99174.98
2022-10-11T21:25:22.340Z,99177.15
2022-10-11T21:28:25.210Z,99174.75
2022-10-11T21:31:33.601Z,99173.84
2022-10-11T21:34:37.680Z,99178.67
2022-10-11T21:37:40.483Z,99180.59
2022-10-11T21:40:43.291Z,99177.34
2022-10-11T21:43:47.311Z,99173.13
2022-10-11T21:47:07.343Z,99176.85
2022-10-11T21:50:10.566Z,99179.41
2022-10-11T21:53:13.344Z,99181.80
2022-10-11T21:56:16.310Z,99182.02
2022-10-11T21:59:19.123Z,99182.45
2022-10-11T22:02:21.904Z,99181.61
2022-10-11T22:05:24.914Z,99182.27
2022-10-11T22:08:27.688Z,99175.25
2022-10-11T22:11:32.194Z,99178.95
2022-10-11T22:14:35.314Z,99179.69
2022-10-11T22:17:38.093Z,99176.59
2022-10-11T22:20:40.982Z,99177.48
2022-10-11T22:23:46.745Z,99176.73
2022-10-11T22:26:49.523Z,99176.28
2022-10-11T22:29:52.350Z,99175.63
2022-10-11T22:32:55.152Z,99172.65
2022-10-11T22:36:00.690Z,99174.80
2022-10-11T22:39:07.844Z,99171.15
2022-10-11T22:42:10.748Z,99174.16
2022-10-11T22:45:13.636Z,99174.04
2022-10-11T22:48:16.498Z,99178.25
2022-10-11T22:51:19.586Z,99180.41
2022-10-11T22:54:22.435Z,99183.73
2022-10-11T22:57:25.229Z,99182.70
2022-10-11T23:00:28.149Z,99180.15
2022-10-11T23:03:31.036Z,99181.92
2022-10-11T23:06:33.863Z,99179.45
2022-10-11T23:09:36.692Z,99180.91
2022-10-11T23:12:39.519Z,99183.40
2022-10-11T23:15:42.656Z,99184.15
2022-10-11T23:18:45.517Z,99182.98
2022-10-11T23:21:48.496Z,99184.20
2022-10-11T23:24:51.397Z,99176.70
2022-10-11T23:27:54.219Z,99179.13
2022-10-11T23:30:57.082Z,99180.45
2022-10-11T23:33:59.911Z,99181.42
2022-10-11T23:37:03.353Z,99176.48
2022-10-11T23:40:06.883Z,99178.48
2022-10-11T23:43:09.693Z,99180.63
2022-10-11T23:46:12.544Z,99181.52
2022-10-11T23:49:15.470Z,99181.40
2022-10-11T23:52:18.440Z,99188.71
2022-10-11T23:55:21.402Z,99186.80
2022-10-11T23:58:24.186Z,99185.34
